Map

Track Data

SID SEASON NUMBER BASIN SUBBASIN NAME ISO_TIME NATURE LAT LON WMO_WIND WMO_PRES WMO_AGENCY TRACK_TYPE DIST2LAND LANDFALL IFLAG USA_AGENCY USA_ATCF_ID USA_LAT USA_LON USA_RECORD USA_STATUS USA_WIND USA_PRES USA_SSHS USA_R34_NE USA_R34_SE USA_R34_SW USA_R34_NW USA_R50_NE USA_R50_SE USA_R50_SW USA_R50_NW USA_R64_NE USA_R64_SE USA_R64_SW USA_R64_NW USA_POCI USA_ROCI USA_RMW USA_EYE TOKYO_LAT TOKYO_LON TOKYO_GRADE TOKYO_WIND TOKYO_PRES TOKYO_R50_DIR TOKYO_R50_LONG TOKYO_R50_SHORT TOKYO_R30_DIR TOKYO_R30_LONG TOKYO_R30_SHORT TOKYO_LAND CMA_LAT CMA_LON CMA_CAT CMA_WIND CMA_PRES HKO_LAT HKO_LON HKO_CAT HKO_WIND HKO_PRES NEWDELHI_LAT NEWDELHI_LON NEWDELHI_GRADE NEWDELHI_WIND NEWDELHI_PRES NEWDELHI_CI NEWDELHI_DP NEWDELHI_POCI REUNION_LAT REUNION_LON REUNION_TYPE REUNION_WIND REUNION_PRES REUNION_TNUM REUNION_CI REUNION_RMW REUNION_R34_NE REUNION_R34_SE REUNION_R34_SW REUNION_R34_NW REUNION_R50_NE REUNION_R50_SE REUNION_R50_SW REUNION_R50_NW REUNION_R64_NE REUNION_R64_SE REUNION_R64_SW REUNION_R64_NW BOM_LAT BOM_LON BOM_TYPE BOM_WIND BOM_PRES BOM_TNUM BOM_CI BOM_RMW BOM_R34_NE BOM_R34_SE BOM_R34_SW BOM_R34_NW BOM_R50_NE BOM_R50_SE BOM_R50_SW BOM_R50_NW BOM_R64_NE BOM_R64_SE BOM_R64_SW BOM_R64_NW BOM_ROCI BOM_POCI BOM_EYE BOM_POS_METHOD BOM_PRES_METHOD NADI_LAT NADI_LON NADI_CAT NADI_WIND NADI_PRES WELLINGTON_LAT WELLINGTON_LON WELLINGTON_WIND WELLINGTON_PRES DS824_LAT DS824_LON DS824_STAGE DS824_WIND DS824_PRES TD9636_LAT TD9636_LON TD9636_STAGE TD9636_WIND TD9636_PRES TD9635_LAT TD9635_LON TD9635_WIND TD9635_PRES TD9635_ROCI NEUMANN_LAT NEUMANN_LON NEUMANN_CLASS NEUMANN_WIND NEUMANN_PRES MLC_LAT MLC_LON MLC_CLASS MLC_WIND MLC_PRES USA_GUST BOM_GUST BOM_GUST_PER REUNION_GUST REUNION_GUST_PER USA_SEAHGT USA_SEARAD_NE USA_SEARAD_SE USA_SEARAD_SW USA_SEARAD_NW STORM_SPEED STORM_DIR
1920098S06134 1920 12 SI WA NOT_NAMED 1920-04-06 12:00:00 NR -5.80000 134.100 main 24 24 __________O___ -1 -5.80000 134.100 7 4 265
1920098S06134 1920 12 SI WA NOT_NAMED 1920-04-06 15:00:00 NR -5.81412 133.920 main 45 45 __________P___ -1 -5.81412 133.920 7 4 265
1920098S06134 1920 12 SI WA NOT_NAMED 1920-04-06 18:00:00 NR -5.83257 133.743 main 64 45 __________P___ -1 -5.83257 133.743 7 4 263
1920098S06134 1920 12 SI WA NOT_NAMED 1920-04-06 21:00:00 NR -5.85973 133.568 main 70 70 __________P___ -1 -5.85973 133.568 7 26 268
1920098S06134 1920 12 SI WA NOT_NAMED 1920-04-06 23:30:00 NR -5.91375 131.382 bom main 147 147 ______O___P___ -1 -6.00000 123.200 -5.89219 133.428 7 70 269
1920098S06134 1920 12 SI WA NOT_NAMED 1920-04-07 00:00:00 NR -5.94009 130.074 main 216 216 ______P___O___ -1 -6.02026 123.422 -5.90000 133.400 7 31 266
1920098S06134 1920 12 SI WA NOT_NAMED 1920-04-07 03:00:00 NR -6.03506 129.599 main 243 236 ______P___P___ -1 -6.13980 124.748 -5.95652 133.237 7 6 249
1920098S06134 1920 12 SI WA NOT_NAMED 1920-04-07 06:00:00 NR -6.14116 129.556 main 236 196 ______P___P___ -1 -6.25490 126.040 -6.02743 133.072 7 5 113
1920098S06134 1920 12 SI WA NOT_NAMED 1920-04-07 09:00:00 NR -6.23706 130.081 main 189 155 ______P___P___ -1 -6.36450 127.265 -6.10963 132.897 7 10 101
1920098S06134 1920 12 SI WA NOT_NAMED 1920-04-07 12:00:00 NR -6.33392 130.545 main 155 118 ______P___O___ -1 -6.46784 128.390 -6.20000 132.700 7 9 103
1920098S06134 1920 12 SI WA NOT_NAMED 1920-04-07 15:00:00 NR -6.43067 130.928 main 118 90 ______P___P___ -1 -6.56446 129.384 -6.29688 132.472 7 7 106
1920098S06134 1920 12 SI WA NOT_NAMED 1920-04-07 18:00:00 NR -6.52706 131.217 main 90 70 ______P___P___ -1 -6.65411 130.212 -6.40001 132.223 7 5 112
1920098S06134 1920 12 SI WA NOT_NAMED 1920-04-07 21:00:00 NR -6.61990 131.404 main 70 57 ______P___P___ -1 -6.73668 130.845 -6.50313 131.962 7 3 123
1920098S06134 1920 12 SI WA NOT_NAMED 1920-04-07 23:30:00 NR -6.69228 131.472 bom main 57 57 ______O___P___ -1 -6.80000 131.200 -6.58455 131.743 7 2 140
1920098S06134 1920 12 SI WA NOT_NAMED 1920-04-08 00:00:00 NR -6.70603 131.475 main 57 46 ______P___O___ -1 -6.81206 131.251 -6.60000 131.700 7 2 203
1920098S06134 1920 12 SI WA NOT_NAMED 1920-04-08 03:00:00 NR -6.78138 131.441 main 49 49 ______P___P___ -1 -6.88068 131.416 -6.68209 131.466 7 2 230
1920098S06134 1920 12 SI WA NOT_NAMED 1920-04-08 06:00:00 NR -6.85082 131.302 main 47 47 ______P___P___ -1 -6.94429 131.375 -6.75734 131.230 7 4 250
1920098S06134 1920 12 SI WA NOT_NAMED 1920-04-08 09:00:00 NR -6.91677 131.071 main 62 62 ______P___P___ -1 -7.00461 131.164 -6.82894 130.979 7 6 256
1920098S06134 1920 12 SI WA NOT_NAMED 1920-04-08 12:00:00 NR -6.98160 130.761 main 71 71 ______P___O___ -1 -7.06319 130.823 -6.90000 130.700 7 7 259
1920098S06134 1920 12 SI WA NOT_NAMED 1920-04-08 15:00:00 NR -7.04423 130.382 main 104 104 ______P___P___ -1 -7.12156 130.389 -6.96691 130.375 7 8 261
1920098S06134 1920 12 SI WA NOT_NAMED 1920-04-08 18:00:00 NR -7.10816 129.963 main 139 139 ______P___P___ -1 -7.18127 129.903 -7.03505 130.022 7 9 261
1920098S06134 1920 12 SI WA NOT_NAMED 1920-04-08 21:00:00 NR -7.17734 129.530 main 188 188 ______P___P___ -1 -7.24404 129.401 -7.11065 129.659 7 9 260
1920098S06134 1920 12 SI WA NOT_NAMED 1920-04-08 23:30:00 NR -7.24194 129.179 bom main 220 220 ______O___P___ -1 -7.30000 129.000 -7.18389 129.359 7 8 259
1920098S06134 1920 12 SI WA NOT_NAMED 1920-04-09 00:00:00 NR -7.25602 129.125 main 227 206 ______P___O___ -1 -7.31204 128.950 -7.20000 129.300 7 7 254
1920098S06134 1920 12 SI WA NOT_NAMED 1920-04-09 03:00:00 NR -7.34845 128.803 main 206 173 ______P___P___ -1 -7.38636 128.642 -7.31055 128.964 7 7 253
1920098S06134 1920 12 SI WA NOT_NAMED 1920-04-09 06:00:00 NR -7.44965 128.481 main 173 133 ______P___P___ -1 -7.46439 128.327 -7.43490 128.635 7 7 252
1920098S06134 1920 12 SI WA NOT_NAMED 1920-04-09 09:00:00 NR -7.55653 128.161 main 133 102 ______P___P___ -1 -7.54625 128.008 -7.56681 128.314 7 7 251
1920098S06134 1920 12 SI WA NOT_NAMED 1920-04-09 12:00:00 NR -7.66602 127.844 main 95 70 ______P___O___ -1 -7.63205 127.688 -7.70000 128.000 7 7 251
1920098S06134 1920 12 SI WA NOT_NAMED 1920-04-09 15:00:00 NR -7.77547 127.527 main 70 49 ______P___P___ -1 -7.72193 127.370 -7.82901 127.685 7 7 250
1920098S06134 1920 12 SI WA NOT_NAMED 1920-04-09 18:00:00 NR -7.88673 127.216 main 49 31 ______P___P___ -1 -7.81603 127.055 -7.95744 127.377 7 6 250
1920098S06134 1920 12 SI WA NOT_NAMED 1920-04-09 21:00:00 NR -7.99832 126.915 main 35 24 ______P___P___ -1 -7.91449 126.748 -8.08215 127.082 7 6 249
1920098S06134 1920 12 SI WA NOT_NAMED 1920-04-09 23:30:00 NR -8.09048 126.673 bom main 24 15 ______O___P___ -1 -8.00000 126.500 -8.18097 126.846 7 6 249
1920098S06134 1920 12 SI WA NOT_NAMED 1920-04-10 00:00:00 NR -8.10824 126.627 main 15 11 ______P___O___ -1 -8.01648 126.453 -8.20000 126.800 7 6 249
1920098S06134 1920 12 SI WA NOT_NAMED 1920-04-10 03:00:00 NR -8.20842 126.361 main 24 22 ______P___P___ -1 -8.11790 126.177 -8.29893 126.544 7 6 249
1920098S06134 1920 12 SI WA NOT_NAMED 1920-04-10 06:00:00 NR -8.30801 126.105 main 24 22 ______P___P___ -1 -8.22370 125.911 -8.39232 126.300 7 5 248
1920098S06134 1920 12 SI WA NOT_NAMED 1920-04-10 09:00:00 NR -8.41176 125.854 main 22 11 ______P___P___ -1 -8.33396 125.651 -8.48955 126.056 7 5 247
1920098S06134 1920 12 SI WA NOT_NAMED 1920-04-10 12:00:00 NR -8.52438 125.598 main 11 0 ______P___O___ -1 -8.44875 125.396 -8.60000 125.800 7 6 245
1920098S06134 1920 12 SI WA NOT_NAMED 1920-04-10 15:00:00 NR -8.65189 125.325 main 0 0 ______P___P___ -1 -8.56814 125.144 -8.73565 125.506 7 6 244
1920098S06134 1920 12 SI WA NOT_NAMED 1920-04-10 18:00:00 NR -8.78861 125.047 main 10 10 ______P___P___ -1 -8.69218 124.893 -8.88504 125.200 7 6 243
1920098S06134 1920 12 SI WA NOT_NAMED 1920-04-10 21:00:00 NR -8.93141 124.768 main 22 15 ______P___P___ -1 -8.82092 124.641 -9.04190 124.894 7 6 242
1920098S06134 1920 12 SI WA NOT_NAMED 1920-04-11 00:00:00 NR -9.07722 124.493 main 15 15 ______P___O___ -1 -8.95443 124.386 -9.20000 124.600 7 6 241
1920098S06134 1920 12 SI WA NOT_NAMED 1920-04-11 01:00:00 NR -9.12559 124.406 bom main 22 11 ______O___P___ -1 -9.00000 124.300 -9.25117 124.512 7 6 241
1920098S06134 1920 12 SI WA NOT_NAMED 1920-04-11 03:00:00 NR -9.22529 124.227 main 11 0 ______P___P___ -1 -9.09667 124.110 -9.35391 124.344 7 6 240
1920098S06134 1920 12 SI WA NOT_NAMED 1920-04-11 06:00:00 NR -9.37730 123.960 main 0 0 ______P___P___ -1 -9.24730 123.820 -9.50729 124.100 7 6 240
1920098S06134 1920 12 SI WA NOT_NAMED 1920-04-11 09:00:00 NR -9.52972 123.692 main 10 10 ______P___P___ -1 -9.40241 123.528 -9.65703 123.856 7 6 240
1920098S06134 1920 12 SI WA NOT_NAMED 1920-04-11 12:00:00 NR -9.67971 123.419 main 32 32 ______P___O___ -1 -9.55942 123.237 -9.80000 123.600 7 6 242
1920098S06134 1920 12 SI WA NOT_NAMED 1920-04-11 15:00:00 NR -9.82607 123.124 main 59 55 ______P___P___ -1 -9.71580 122.953 -9.93634 123.294 7 7 244
1920098S06134 1920 12 SI WA NOT_NAMED 1920-04-11 18:00:00 NR -9.96707 122.828 main 79 79 ______P___P___ -1 -9.86900 122.679 -10.0651 122.978 7 6 244
1920098S06134 1920 12 SI WA NOT_NAMED 1920-04-11 21:00:00 NR -10.1014 122.545 main 110 110 ______P___P___ -1 -10.0165 122.419 -10.1864 122.672 7 6 244
1920098S06134 1920 12 SI WA NOT_NAMED 1920-04-12 00:00:00 NR -10.2279 122.288 main 131 131 ______P___O___ -1 -10.1558 122.176 -10.3000 122.400 7 6 243
1920098S06134 1920 12 SI WA NOT_NAMED 1920-04-12 01:00:00 NR -10.2683 122.213 bom main 142 142 ______O___P___ -1 -10.2000 122.100 -10.3366 122.326 7 5 241
1920098S06134 1920 12 SI WA NOT_NAMED 1920-04-12 03:00:00 NR -10.3458 122.074 main 146 128 ______P___P___ -1 -10.2846 121.955 -10.4070 122.193 7 4 240
1920098S06134 1920 12 SI WA NOT_NAMED 1920-04-12 06:00:00 NR -10.4551 121.888 main 132 113 ______P___P___ -1 -10.4029 121.756 -10.5073 122.020 7 4 239
1920098S06134 1920 12 SI WA NOT_NAMED 1920-04-12 09:00:00 NR -10.5580 121.718 main 118 108 ______P___P___ -1 -10.5120 121.575 -10.6039 121.862 7 4 238
1920098S06134 1920 12 SI WA NOT_NAMED 1920-04-12 12:00:00 NR -10.6568 121.555 main 113 94 ______P___O___ -1 -10.6136 121.409 -10.7000 121.700 7 4 239
1920098S06134 1920 12 SI WA NOT_NAMED 1920-04-12 15:00:00 NR -10.7534 121.388 main 101 86 ______P___P___ -1 -10.7089 121.256 -10.7980 121.520 7 4 242
1920098S06134 1920 12 SI WA NOT_NAMED 1920-04-12 18:00:00 NR -10.8415 121.203 main 86 84 ______P___P___ -1 -10.7994 121.113 -10.8977 121.323 7 4 243
1920098S06134 1920 12 SI WA NOT_NAMED 1920-04-12 21:00:00 NR -10.9314 121.032 main 84 84 ______P___P___ -1 -10.8865 120.976 -10.9986 121.114 7 4 243
1920098S06134 1920 12 SI WA NOT_NAMED 1920-04-13 00:00:00 NR -11.0145 120.863 main 89 84 ______P___O___ -1 -10.9718 120.844 -11.1000 120.900 7 4 253
1920098S06134 1920 12 SI WA NOT_NAMED 1920-04-13 01:00:00 NR -11.0000 120.800 bom main 84 ______O_______ -1 -11.0000 120.800 7 4 285

About IBTrACS Database

This database is a web-friendly format of International Best Track Archive for Climate Stewardship (IBTrACS), a global best track data archive curated by NOAA dating back to 1842.

Updated: 2021-10-25